KHIB/HIB METAR and TAF weather

Enter ICAO airport designator
Station Type Date Time Source
KHIB METAR 2019/02/23 00:21 UTC NOAA

KHIB 230021Z AUTO VRB03KT 5SM -SN BR SCT028 OVC100 M06/M07 A3026 RMK AO2 P0000 T10561072


Station Type Date Time Source
KHIB Decoded METAR 2019/02/23 00:21 UTC NOAA

CHISHOLM-HIBBING AIRPORT, MN, United States (KHIB) 47-23N 92-50W 412M
Feb 22, 2019 - 07:21 PM EST / 2019.02.23 0021 UTC
Wind: Variable at 3 MPH (3 KT):0
Visibility: 5 mile(s):0
Sky conditions: overcast
Weather: light snow; mist
Precipitation last hour: A trace
Temperature: 21.9 F (-5.6 C)
Dew Point: 19.0 F (-7.2 C)
Relative Humidity: 88%
Pressure (altimeter): 30.26 in. Hg (1024 hPa)
ob: KHIB 230021Z AUTO VRB03KT 5SM -SN BR SCT028 OVC100 M06/M07 A3026 RMK AO2 P0000 T10561072
cycle: 0

Station Type Date Time Source
KHIB TAF 2019/02/23 00:30 UTC NOAA

TAF
AMD KHIB 230029Z 2300/2324 VRB03KT P6SM -SN SCT035 OVC100
TEMPO 2300/2301 4SM -SN BKN015 OVC026
FM230500 VRB03KT 5SM -SN OVC025
FM230800 VRB04KT 2SM -SN OVC020
FM231800 14005KT P6SM VCSH OVC008
FM232300 VRB03KT P6SM VCSH OVC010


Example: see airport list